createdAt,value
2018-04-16T00:01:55.308Z,83.33
2018-04-16T00:04:21.056Z,73.13
2018-04-16T00:06:46.791Z,72.33
2018-04-16T00:09:12.540Z,69.50
2018-04-16T00:11:38.277Z,77.13
2018-04-16T00:14:04.032Z,82.87
2018-04-16T00:16:29.764Z,69.23
2018-04-16T00:18:55.505Z,70.40
2018-04-16T00:21:21.245Z,68.87
2018-04-16T00:23:46.981Z,87.00
2018-04-16T00:26:12.725Z,79.60
2018-04-16T00:28:38.448Z,116.60
2018-04-16T00:31:04.183Z,70.97
2018-04-16T00:33:36.075Z,79.03
2018-04-16T00:36:07.897Z,79.30
2018-04-16T00:38:39.824Z,96.37
2018-04-16T00:41:11.701Z,75.27
2018-04-16T00:43:43.440Z,69.37
2018-04-16T00:46:15.289Z,78.17
2018-04-16T00:48:47.154Z,72.73
2018-04-16T00:51:19.020Z,74.00
2018-04-16T00:54:22.948Z,71.17
2018-04-16T00:56:54.629Z,68.63
2018-04-16T00:59:26.535Z,68.03
2018-04-16T01:01:58.582Z,76.37
2018-04-16T01:04:30.420Z,73.63
2018-04-16T01:07:02.297Z,68.53
2018-04-16T01:09:34.099Z,70.17
2018-04-16T01:12:05.901Z,85.17
2018-04-16T01:14:37.784Z,90.37
2018-04-16T01:20:13.623Z,90.57
2018-04-16T01:22:45.462Z,92.50
2018-04-16T01:25:17.340Z,89.03
2018-04-16T01:27:49.078Z,101.20
2018-04-16T01:30:20.976Z,93.00
2018-04-16T01:32:52.959Z,77.47
2018-04-16T01:35:24.787Z,95.50
2018-04-16T01:37:56.792Z,60.80
2018-04-16T01:40:28.646Z,75.57
2018-04-16T01:43:00.452Z,102.68
2018-04-16T01:45:32.281Z,110.65
2018-04-16T01:48:04.113Z,65.75
2018-04-16T01:50:35.969Z,102.57
2018-04-16T01:53:07.733Z,72.78
2018-04-16T01:55:39.473Z,117.65
2018-04-16T02:01:13.128Z,88.30
2018-04-16T02:03:44.833Z,75.50
2018-04-16T02:06:16.737Z,110.07
2018-04-16T02:08:48.572Z,76.85
2018-04-16T02:11:20.452Z,82.70
2018-04-16T02:13:52.200Z,75.30
2018-04-16T02:16:23.964Z,124.85
2018-04-16T02:18:55.820Z,99.97
2018-04-16T02:21:27.764Z,82.10
2018-04-16T02:23:59.540Z,121.90
2018-04-16T02:26:31.328Z,107.03
2018-04-16T02:29:03.064Z,95.53
2018-04-16T02:31:34.939Z,124.18
2018-04-16T02:34:06.788Z,77.05
2018-04-16T02:36:38.568Z,66.72
2018-04-16T02:39:10.312Z,74.15
2018-04-16T02:41:42.314Z,55.00
2018-04-16T02:44:14.072Z,105.32
2018-04-16T02:46:45.964Z,101.50
2018-04-16T02:49:17.802Z,64.65
2018-04-16T02:51:49.629Z,65.10
2018-04-16T02:54:21.487Z,72.17
2018-04-16T02:56:53.362Z,57.13
2018-04-16T02:59:25.165Z,62.00
2018-04-16T03:01:57.118Z,58.10
2018-04-16T03:04:28.932Z,58.03
2018-04-16T03:07:00.780Z,99.03
2018-04-16T03:09:32.515Z,59.13
2018-04-16T03:12:04.316Z,52.30
2018-04-16T03:14:36.299Z,54.17
2018-04-16T03:17:08.128Z,76.93
2018-04-16T03:19:40.032Z,66.93
2018-04-16T03:22:12.004Z,83.10
2018-04-16T03:24:43.746Z,65.47
2018-04-16T03:27:15.600Z,95.60
2018-04-16T03:29:47.305Z,76.80
2018-04-16T03:32:19.116Z,81.47
2018-04-16T03:34:50.964Z,60.90
2018-04-16T03:37:22.976Z,48.95
2018-04-16T03:39:54.725Z,50.65
2018-04-16T03:42:26.613Z,53.90
2018-04-16T03:44:58.533Z,51.22
2018-04-16T03:50:33.970Z,48.28
2018-04-16T03:53:05.916Z,50.38
2018-04-16T03:58:27.817Z,48.45
2018-04-16T04:00:53.556Z,49.20
2018-04-16T04:03:19.296Z,45.23
2018-04-16T04:05:45.028Z,43.50
2018-04-16T04:08:10.768Z,41.20
2018-04-16T04:10:36.504Z,46.40
2018-04-16T04:13:02.277Z,39.63
2018-04-16T04:15:28.026Z,39.87
2018-04-16T04:17:53.769Z,50.93
2018-04-16T04:20:19.509Z,50.70
2018-04-16T04:22:57.758Z,53.80
2018-04-16T04:25:36.151Z,52.47
2018-04-16T04:28:14.386Z,56.88
2018-04-16T04:30:40.168Z,46.75
2018-04-16T04:33:05.888Z,43.70
2018-04-16T04:35:31.644Z,39.37
2018-04-16T04:37:57.393Z,41.37
2018-04-16T04:40:23.140Z,45.50
2018-04-16T04:42:48.912Z,53.53
2018-04-16T04:45:14.690Z,51.47
2018-04-16T04:47:40.459Z,54.23
2018-04-16T04:50:06.221Z,50.60
2018-04-16T04:52:31.957Z,38.43
2018-04-16T04:54:57.715Z,36.83
2018-04-16T04:57:23.450Z,43.80
2018-04-16T04:59:49.205Z,38.10
2018-04-16T05:02:14.952Z,39.03
2018-04-16T05:04:40.689Z,48.57
2018-04-16T05:07:06.433Z,51.53
2018-04-16T05:09:32.174Z,48.90
2018-04-16T05:11:57.921Z,51.70
2018-04-16T05:14:23.676Z,53.17
2018-04-16T05:16:49.434Z,54.07
2018-04-16T05:19:15.185Z,55.00
2018-04-16T05:21:40.942Z,57.07
2018-04-16T05:24:06.680Z,55.20
2018-04-16T05:26:32.440Z,58.23
2018-04-16T05:28:58.196Z,56.07
2018-04-16T05:31:23.951Z,55.20
2018-04-16T05:33:49.676Z,49.83
2018-04-16T05:36:15.452Z,47.13
2018-04-16T05:38:41.201Z,49.10
2018-04-16T05:41:06.972Z,50.03
2018-04-16T05:43:32.717Z,50.67
2018-04-16T05:45:58.465Z,50.37
2018-04-16T05:48:24.217Z,51.17
2018-04-16T05:50:49.968Z,51.73
2018-04-16T05:53:15.716Z,50.37
2018-04-16T05:55:41.464Z,47.23
2018-04-16T05:58:07.225Z,49.83
2018-04-16T06:00:32.988Z,49.40
2018-04-16T06:02:58.716Z,49.70
2018-04-16T06:05:24.477Z,49.23
2018-04-16T06:07:50.213Z,52.03
2018-04-16T06:10:15.965Z,55.43
2018-04-16T06:12:41.721Z,51.67
2018-04-16T06:15:07.484Z,55.10
2018-04-16T06:17:33.216Z,51.33
2018-04-16T06:19:58.973Z,50.70
2018-04-16T06:22:24.724Z,51.17
2018-04-16T06:24:50.476Z,51.30
2018-04-16T06:27:16.327Z,50.23
2018-04-16T06:29:42.014Z,52.57
2018-04-16T06:32:07.779Z,53.40
2018-04-16T06:34:33.516Z,53.20
2018-04-16T06:36:59.316Z,52.00
2018-04-16T06:39:24.999Z,49.57
2018-04-16T06:41:50.744Z,49.13
2018-04-16T06:44:16.478Z,50.17
2018-04-16T06:46:42.228Z,48.93
2018-04-16T06:49:07.984Z,50.57
2018-04-16T06:51:33.748Z,49.43
2018-04-16T06:53:59.476Z,53.87
2018-04-16T06:56:25.228Z,51.47
2018-04-16T06:58:50.960Z,50.63
2018-04-16T07:01:16.715Z,50.53
2018-04-16T07:03:42.465Z,53.27
2018-04-16T07:06:08.204Z,52.97
2018-04-16T07:08:33.949Z,50.47
2018-04-16T07:10:59.692Z,51.83
2018-04-16T07:13:25.455Z,52.83
2018-04-16T07:15:51.265Z,49.50
2018-04-16T07:18:16.974Z,47.77
2018-04-16T07:20:42.708Z,46.37
2018-04-16T07:23:08.480Z,45.87
2018-04-16T07:25:34.225Z,44.30
2018-04-16T07:27:59.981Z,42.07
2018-04-16T07:30:25.720Z,42.03
2018-04-16T07:32:51.470Z,43.23
2018-04-16T07:35:17.187Z,42.57
2018-04-16T07:37:42.939Z,44.07
2018-04-16T07:40:08.680Z,41.60
2018-04-16T07:42:34.442Z,42.63
2018-04-16T07:45:00.181Z,40.63
2018-04-16T07:47:25.918Z,39.57
2018-04-16T07:49:51.669Z,37.80
2018-04-16T07:52:17.421Z,39.67
2018-04-16T07:54:43.156Z,38.27
2018-04-16T07:57:08.892Z,38.30
2018-04-16T07:59:34.629Z,37.87
2018-04-16T08:02:00.383Z,38.43
2018-04-16T08:04:33.287Z,37.57
2018-04-16T08:06:59.047Z,37.53
2018-04-16T08:09:24.788Z,38.43
2018-04-16T08:11:50.548Z,36.63
2018-04-16T08:14:16.292Z,38.70
2018-04-16T08:16:42.057Z,38.60
2018-04-16T08:19:07.820Z,38.43
2018-04-16T08:21:33.551Z,39.40
2018-04-16T08:23:59.284Z,39.73
2018-04-16T08:26:25.016Z,37.90
2018-04-16T08:28:50.752Z,40.50
2018-04-16T08:31:16.499Z,40.93
2018-04-16T08:33:42.245Z,38.93
2018-04-16T08:36:07.983Z,41.53
2018-04-16T08:38:33.736Z,40.33
2018-04-16T08:40:59.465Z,41.10
2018-04-16T08:43:25.221Z,41.83
2018-04-16T08:45:57.981Z,39.90
2018-04-16T08:48:23.760Z,41.80
2018-04-16T08:50:49.488Z,39.17
2018-04-16T08:53:15.233Z,42.23
2018-04-16T08:55:40.973Z,40.73
2018-04-16T08:58:06.724Z,39.87
2018-04-16T09:00:32.513Z,41.17
2018-04-16T09:02:58.220Z,39.30
2018-04-16T09:05:23.953Z,38.67
2018-04-16T09:07:49.691Z,38.47
2018-04-16T09:10:15.424Z,37.20
2018-04-16T09:12:41.177Z,37.70
2018-04-16T09:15:06.926Z,39.60
2018-04-16T09:17:32.679Z,37.73
2018-04-16T09:19:58.436Z,35.77
2018-04-16T09:22:24.196Z,35.83
2018-04-16T09:24:49.938Z,33.77
2018-04-16T09:27:15.692Z,35.47
2018-04-16T09:29:41.469Z,34.63
2018-04-16T09:32:07.229Z,33.93
2018-04-16T09:34:32.960Z,33.90
2018-04-16T09:36:58.703Z,36.67
2018-04-16T09:39:24.440Z,34.90
2018-04-16T09:41:50.171Z,33.07
2018-04-16T09:44:15.924Z,34.53
2018-04-16T09:46:41.660Z,34.30
2018-04-16T09:49:07.419Z,34.10
2018-04-16T09:51:33.165Z,34.97
2018-04-16T09:53:58.913Z,33.73
2018-04-16T09:56:24.640Z,32.80
2018-04-16T09:58:50.396Z,34.40
2018-04-16T10:01:21.124Z,34.47
2018-04-16T10:03:46.872Z,33.47
2018-04-16T10:06:12.613Z,35.40
2018-04-16T10:08:38.363Z,34.73
2018-04-16T10:11:04.099Z,35.07
2018-04-16T10:13:29.857Z,33.97
2018-04-16T10:15:55.604Z,33.03
2018-04-16T10:18:21.346Z,33.13
2018-04-16T10:20:47.072Z,33.03
2018-04-16T10:23:12.826Z,32.57
2018-04-16T10:25:38.561Z,34.03
2018-04-16T10:28:04.313Z,31.07
2018-04-16T10:30:30.058Z,30.53
2018-04-16T10:32:55.796Z,31.20
2018-04-16T10:35:21.533Z,31.77
2018-04-16T10:37:47.289Z,32.63
2018-04-16T10:40:13.034Z,31.10
2018-04-16T10:42:38.788Z,31.57
2018-04-16T10:45:04.546Z,30.00
2018-04-16T10:47:30.297Z,28.80
2018-04-16T10:49:56.047Z,29.57
2018-04-16T10:52:21.781Z,30.70
2018-04-16T10:54:47.528Z,29.67
2018-04-16T10:57:13.277Z,29.17
2018-04-16T10:59:39.026Z,29.57
2018-04-16T11:02:04.779Z,29.40
2018-04-16T11:04:30.536Z,28.60
2018-04-16T11:06:56.266Z,31.17
2018-04-16T11:09:22.004Z,29.17
2018-04-16T11:11:47.749Z,29.40
2018-04-16T11:14:13.511Z,28.93
2018-04-16T11:16:39.276Z,29.90
2018-04-16T11:19:05.028Z,28.57
2018-04-16T11:21:30.768Z,27.13
2018-04-16T11:23:56.518Z,28.80
2018-04-16T11:26:22.321Z,28.53
2018-04-16T11:28:48.012Z,27.93
2018-04-16T11:31:13.744Z,27.43
2018-04-16T11:33:39.500Z,27.97
2018-04-16T11:36:05.232Z,29.00
2018-04-16T11:38:30.998Z,27.20
2018-04-16T11:40:56.752Z,27.80
2018-04-16T11:43:22.504Z,28.87
2018-04-16T11:45:48.240Z,29.53
2018-04-16T11:48:13.997Z,28.43
2018-04-16T11:50:39.745Z,29.10
2018-04-16T11:53:05.497Z,30.57
2018-04-16T11:55:31.260Z,29.60
2018-04-16T11:57:56.991Z,27.23
2018-04-16T12:00:22.757Z,28.83
2018-04-16T12:02:48.492Z,26.47
2018-04-16T12:05:14.268Z,29.57
2018-04-16T12:07:40.012Z,29.13
2018-04-16T12:10:05.760Z,28.03
2018-04-16T12:12:31.505Z,29.67
2018-04-16T12:14:57.263Z,29.10
2018-04-16T12:17:23.008Z,26.23
2018-04-16T12:19:48.756Z,24.93
2018-04-16T12:22:14.494Z,24.07
2018-04-16T12:24:40.253Z,23.53
2018-04-16T12:27:05.985Z,24.07
2018-04-16T12:29:31.735Z,23.20
2018-04-16T12:31:57.477Z,21.67
2018-04-16T12:34:23.237Z,21.43
2018-04-16T12:36:48.975Z,20.40
2018-04-16T12:39:14.719Z,19.47
2018-04-16T12:41:40.456Z,18.97
2018-04-16T12:44:06.219Z,18.97
2018-04-16T12:46:31.961Z,20.13
2018-04-16T12:48:57.713Z,19.03
2018-04-16T12:51:23.456Z,18.23
2018-04-16T12:53:49.188Z,19.53
2018-04-16T12:56:14.933Z,19.37
2018-04-16T12:58:40.693Z,18.77
2018-04-16T13:01:06.444Z,18.90
2018-04-16T13:03:32.184Z,19.40
2018-04-16T13:05:57.929Z,19.07
2018-04-16T13:08:23.696Z,19.33
2018-04-16T13:10:49.444Z,20.37
2018-04-16T13:13:15.180Z,22.07
2018-04-16T13:15:40.927Z,21.60
2018-04-16T13:18:06.680Z,24.70
2018-04-16T13:20:32.433Z,24.30
2018-04-16T13:22:58.164Z,23.70
2018-04-16T13:25:23.910Z,23.93
2018-04-16T13:27:49.644Z,23.20
2018-04-16T13:30:15.400Z,24.20
2018-04-16T13:32:41.135Z,24.37
2018-04-16T13:35:06.885Z,23.70
2018-04-16T13:37:32.623Z,22.90
2018-04-16T13:39:58.373Z,22.90
2018-04-16T13:42:24.115Z,25.00
2018-04-16T13:44:49.869Z,24.93
2018-04-16T13:47:15.604Z,23.67
2018-04-16T13:49:41.372Z,24.83
2018-04-16T13:52:07.108Z,25.77
2018-04-16T13:54:32.853Z,27.70
2018-04-16T13:56:58.593Z,30.47
2018-04-16T13:59:24.347Z,32.20
2018-04-16T14:01:50.092Z,33.30
2018-04-16T14:04:15.836Z,35.53
2018-04-16T14:06:41.579Z,36.63
2018-04-16T14:09:07.321Z,34.70
2018-04-16T14:11:33.069Z,36.20
2018-04-16T14:13:58.806Z,37.33
2018-04-16T14:16:24.575Z,37.57
2018-04-16T14:18:50.315Z,35.77
2018-04-16T14:21:16.064Z,40.43
2018-04-16T14:23:41.800Z,37.27
2018-04-16T14:26:07.553Z,43.47
2018-04-16T14:28:33.308Z,45.57
2018-04-16T14:30:59.069Z,46.30
2018-04-16T14:33:24.806Z,40.17
2018-04-16T14:35:50.568Z,38.00
2018-04-16T14:38:16.304Z,28.57
2018-04-16T14:40:42.064Z,28.03
2018-04-16T14:43:07.804Z,33.40
2018-04-16T14:45:33.560Z,38.67
2018-04-16T14:47:59.304Z,39.33
2018-04-16T14:50:25.036Z,44.90
2018-04-16T14:52:50.771Z,48.90
2018-04-16T14:55:16.530Z,46.43
2018-04-16T14:57:42.264Z,48.60
2018-04-16T15:00:08.015Z,47.57
2018-04-16T15:02:33.763Z,47.57
2018-04-16T15:04:59.496Z,45.27
2018-04-16T15:07:25.232Z,43.40
2018-04-16T15:09:50.960Z,48.63
2018-04-16T15:12:16.700Z,46.80
2018-04-16T15:14:42.447Z,50.20
2018-04-16T15:17:08.189Z,49.37
2018-04-16T15:19:33.944Z,41.40
2018-04-16T15:21:59.693Z,39.83
2018-04-16T15:24:25.450Z,38.47
2018-04-16T15:26:51.210Z,37.03
2018-04-16T15:29:16.947Z,29.90
2018-04-16T15:31:42.691Z,30.90
2018-04-16T15:34:08.456Z,28.80
2018-04-16T15:36:34.596Z,23.37
2018-04-16T15:39:00.344Z,24.83
2018-04-16T15:41:26.084Z,25.53
2018-04-16T15:43:51.837Z,26.33
2018-04-16T15:46:17.589Z,27.63
2018-04-16T15:48:43.337Z,27.97
2018-04-16T15:51:09.141Z,27.40
2018-04-16T15:53:34.882Z,27.50
2018-04-16T15:56:00.639Z,26.07
2018-04-16T15:58:26.387Z,25.60
2018-04-16T16:00:52.144Z,24.57
2018-04-16T16:03:17.892Z,27.87
2018-04-16T16:05:43.631Z,30.03
2018-04-16T16:08:09.389Z,31.37
2018-04-16T16:10:35.132Z,31.93
2018-04-16T16:13:00.872Z,32.17
2018-04-16T16:15:26.604Z,31.33
2018-04-16T16:17:52.355Z,31.93
2018-04-16T16:20:18.088Z,30.30
2018-04-16T16:22:43.836Z,32.23
2018-04-16T16:25:09.590Z,31.10
2018-04-16T16:27:35.351Z,32.03
2018-04-16T16:30:01.081Z,28.93
2018-04-16T16:32:26.825Z,28.03
2018-04-16T16:34:52.604Z,28.50
2018-04-16T16:37:18.312Z,28.07
2018-04-16T16:39:44.076Z,27.60
2018-04-16T16:42:09.837Z,26.40
2018-04-16T16:44:35.592Z,25.70
2018-04-16T16:47:01.346Z,25.50
2018-04-16T16:49:27.096Z,23.97
2018-04-16T16:51:52.860Z,24.53
2018-04-16T16:54:18.611Z,23.10
2018-04-16T16:56:44.328Z,22.60
2018-04-16T16:59:10.069Z,21.73
2018-04-16T17:01:35.803Z,21.00
2018-04-16T17:04:01.541Z,19.83
2018-04-16T17:06:27.285Z,17.47
2018-04-16T17:08:53.045Z,16.20
2018-04-16T17:11:18.806Z,14.37
2018-04-16T17:13:44.593Z,14.30
2018-04-16T17:16:10.284Z,13.60
2018-04-16T17:18:36.033Z,13.27
2018-04-16T17:21:01.783Z,11.20
2018-04-16T17:23:27.576Z,11.17
2018-04-16T17:25:53.356Z,8.93
2018-04-16T17:28:19.102Z,8.30
2018-04-16T17:30:44.838Z,9.17
2018-04-16T17:33:10.588Z,8.70
2018-04-16T17:35:36.341Z,9.27
2018-04-16T17:38:02.082Z,9.10
2018-04-16T17:40:27.812Z,10.30
2018-04-16T17:42:53.552Z,11.10
2018-04-16T17:45:19.295Z,11.13
2018-04-16T17:47:45.042Z,11.10
2018-04-16T17:50:10.792Z,11.17
2018-04-16T17:52:36.557Z,10.40
2018-04-16T17:55:02.438Z,9.77
2018-04-16T17:57:28.205Z,10.40
2018-04-16T17:59:53.948Z,9.27
2018-04-16T18:02:19.690Z,9.83
2018-04-16T18:04:45.416Z,9.90
2018-04-16T18:07:11.181Z,10.97
2018-04-16T18:09:36.922Z,11.90
2018-04-16T18:12:02.763Z,10.30
2018-04-16T18:14:28.509Z,10.60
2018-04-16T18:16:54.255Z,11.23
2018-04-16T18:19:20.001Z,10.93
2018-04-16T18:21:45.741Z,11.40
2018-04-16T18:24:11.488Z,10.93
2018-04-16T18:26:37.242Z,11.20
2018-04-16T18:29:02.993Z,11.73
2018-04-16T18:31:28.738Z,12.27
2018-04-16T18:33:54.521Z,12.90
2018-04-16T18:36:20.339Z,12.73
2018-04-16T18:38:46.080Z,12.13
2018-04-16T18:41:11.810Z,12.77
2018-04-16T18:43:37.544Z,11.93
2018-04-16T18:46:03.288Z,11.30
2018-04-16T18:48:29.051Z,10.30
2018-04-16T18:50:54.792Z,10.83
2018-04-16T18:53:20.524Z,10.10
2018-04-16T18:55:46.256Z,10.50
2018-04-16T18:58:12.022Z,9.43
2018-04-16T19:00:37.761Z,9.50
2018-04-16T19:03:03.500Z,8.63
2018-04-16T19:05:29.237Z,7.60
2018-04-16T19:07:54.979Z,7.70
2018-04-16T19:10:20.712Z,6.47
2018-04-16T19:12:46.459Z,7.53
2018-04-16T19:15:12.221Z,6.83
2018-04-16T19:17:44.081Z,7.17
2018-04-16T19:20:09.954Z,6.33
2018-04-16T19:22:35.992Z,5.90
2018-04-16T19:25:01.782Z,5.87
2018-04-16T19:27:33.613Z,5.30
2018-04-16T19:29:59.354Z,5.13
2018-04-16T19:32:25.199Z,4.57
2018-04-16T19:34:57.359Z,4.63
2018-04-16T19:37:23.191Z,5.03
2018-04-16T19:39:49.052Z,4.30
2018-04-16T19:42:21.006Z,3.50
2018-04-16T19:44:46.903Z,4.03
2018-04-16T19:47:12.674Z,4.17
2018-04-16T19:49:44.613Z,3.87
2018-04-16T19:52:10.349Z,3.77
2018-04-16T19:54:36.100Z,4.30
2018-04-16T19:57:08.180Z,4.10
2018-04-16T19:59:34.137Z,3.80
2018-04-16T20:02:06.204Z,3.50
2018-04-16T20:04:32.081Z,4.43
2018-04-16T20:06:57.981Z,4.00
2018-04-16T20:09:23.789Z,3.90
2018-04-16T20:11:49.524Z,3.80
2018-04-16T20:14:15.284Z,4.20
2018-04-16T20:16:41.041Z,3.70
2018-04-16T20:19:06.806Z,3.70
2018-04-16T20:21:32.956Z,4.10
2018-04-16T20:23:59.911Z,3.57
2018-04-16T20:26:26.133Z,3.70
2018-04-16T20:28:52.138Z,4.47
2018-04-16T20:31:18.123Z,4.67
2018-04-16T20:33:43.909Z,5.20
2018-04-16T20:36:09.656Z,4.67
2018-04-16T20:38:37.653Z,4.70
2018-04-16T20:41:03.853Z,4.87
2018-04-16T20:43:29.903Z,5.40
2018-04-16T20:45:56.235Z,5.00
2018-04-16T20:48:22.041Z,5.30
2018-04-16T20:50:48.045Z,5.60
2018-04-16T20:53:14.092Z,5.70
2018-04-16T20:55:40.054Z,5.90
2018-04-16T20:58:05.832Z,5.23
2018-04-16T21:00:31.585Z,5.87
2018-04-16T21:02:57.670Z,6.47
2018-04-16T21:05:23.653Z,5.80
2018-04-16T21:07:49.397Z,5.90
2018-04-16T21:10:15.460Z,6.00
2018-04-16T21:12:41.662Z,5.93
2018-04-16T21:15:07.833Z,6.13
2018-04-16T21:17:33.851Z,6.40
2018-04-16T21:19:59.620Z,6.40
2018-04-16T21:22:25.368Z,6.10
2018-04-16T21:24:51.111Z,5.90
2018-04-16T21:27:16.855Z,6.67
2018-04-16T21:29:43.001Z,5.93
2018-04-16T21:32:08.773Z,7.03
2018-04-16T21:34:34.665Z,6.33
2018-04-16T21:37:00.804Z,6.67
2018-04-16T21:39:26.611Z,7.00
2018-04-16T21:41:52.447Z,7.20
2018-04-16T21:44:18.215Z,7.07
2018-04-16T21:46:43.977Z,6.93
2018-04-16T21:49:09.730Z,6.93
2018-04-16T21:51:35.489Z,7.00
2018-04-16T21:54:01.228Z,7.13
2018-04-16T21:56:26.992Z,7.53
2018-04-16T21:58:52.729Z,6.67
2018-04-16T22:01:18.480Z,7.10
2018-04-16T22:03:44.220Z,7.30
2018-04-16T22:06:09.976Z,7.07
2018-04-16T22:08:35.768Z,7.83
2018-04-16T22:11:01.473Z,6.87
2018-04-16T22:13:27.294Z,6.97
2018-04-16T22:15:53.037Z,7.43
2018-04-16T22:18:18.775Z,7.63
2018-04-16T22:20:44.523Z,7.33
2018-04-16T22:23:10.269Z,7.83
2018-04-16T22:25:36.028Z,8.10
2018-04-16T22:28:01.769Z,7.67
2018-04-16T22:30:27.540Z,8.10
2018-04-16T22:32:53.284Z,7.57
2018-04-16T22:35:19.042Z,7.57
2018-04-16T22:37:44.790Z,7.30
2018-04-16T22:40:10.538Z,7.67
2018-04-16T22:42:36.290Z,7.60
2018-04-16T22:45:02.063Z,7.77
2018-04-16T22:47:27.804Z,8.37
2018-04-16T22:49:53.556Z,8.40
2018-04-16T22:52:19.325Z,7.47
2018-04-16T22:54:45.057Z,8.00
2018-04-16T22:57:10.800Z,7.57
2018-04-16T22:59:36.548Z,8.93
2018-04-16T23:02:02.328Z,9.03
2018-04-16T23:04:28.107Z,8.20
2018-04-16T23:06:53.853Z,8.13
2018-04-16T23:09:19.586Z,8.57
2018-04-16T23:11:45.360Z,8.07
2018-04-16T23:14:11.088Z,9.10
2018-04-16T23:16:36.828Z,8.00
2018-04-16T23:19:02.611Z,8.97
2018-04-16T23:21:28.372Z,8.40
2018-04-16T23:23:54.124Z,8.87
2018-04-16T23:26:19.884Z,9.27
2018-04-16T23:28:45.620Z,9.47
2018-04-16T23:31:11.349Z,8.47
2018-04-16T23:33:37.073Z,8.73
2018-04-16T23:36:02.837Z,8.43
2018-04-16T23:38:28.573Z,8.37
2018-04-16T23:40:54.325Z,7.63
2018-04-16T23:43:20.044Z,9.40
2018-04-16T23:45:45.785Z,8.77
2018-04-16T23:48:17.507Z,8.53
2018-04-16T23:50:43.261Z,7.90
2018-04-16T23:53:08.997Z,7.87
2018-04-16T23:55:34.744Z,8.00
2018-04-16T23:58:00.487Z,7.93
